createdAt,value
2019-02-18T00:04:01.984Z,22.43
2019-02-18T00:09:10.659Z,23.10
2019-02-18T00:14:18.071Z,158.60
2019-02-18T00:19:25.487Z,56.87
2019-02-18T00:24:33.162Z,87.62
2019-02-18T00:29:41.119Z,200.60
2019-02-18T00:34:49.016Z,245.90
2019-02-18T00:39:56.623Z,363.48
2019-02-18T00:45:04.540Z,383.63
2019-02-18T00:50:12.277Z,253.37
2019-02-18T00:55:19.391Z,339.40
2019-02-18T01:00:26.959Z,403.20
2019-02-18T01:05:34.387Z,257.40
2019-02-18T01:10:42.890Z,139.47
2019-02-18T01:15:50.387Z,62.90
2019-02-18T01:20:58.011Z,33.57
2019-02-18T01:26:05.103Z,21.57
2019-02-18T01:31:12.473Z,18.07
2019-02-18T01:41:26.905Z,16.90
2019-02-18T01:46:34.378Z,14.30
2019-02-18T01:51:42.386Z,14.73
2019-02-18T02:01:56.721Z,13.72
2019-02-18T02:07:03.824Z,14.90
2019-02-18T02:12:11.142Z,14.43
2019-02-18T02:17:18.537Z,13.60
2019-02-18T02:22:25.942Z,15.38
2019-02-18T02:27:33.390Z,13.50
2019-02-18T02:32:41.054Z,14.43
2019-02-18T02:37:48.473Z,18.80
2019-02-18T02:42:55.974Z,18.55
2019-02-18T02:48:03.392Z,112.97
2019-02-18T02:53:11.801Z,253.07
2019-02-18T02:58:18.994Z,289.75
2019-02-18T03:03:27.015Z,294.83
2019-02-18T03:08:34.524Z,593.70
2019-02-18T03:13:41.934Z,605.57
2019-02-18T03:18:49.399Z,539.65
2019-02-18T03:23:56.540Z,491.42
2019-02-18T03:29:03.539Z,294.83
2019-02-18T03:34:10.942Z,174.90
2019-02-18T03:39:18.456Z,102.42
2019-02-18T03:44:40.991Z,53.47
2019-02-18T03:54:56.006Z,24.43
2019-02-18T04:00:03.387Z,20.17
2019-02-18T04:05:11.027Z,19.17
2019-02-18T04:10:18.392Z,19.10
2019-02-18T04:15:25.960Z,17.40
2019-02-18T04:20:33.388Z,17.43
2019-02-18T04:25:41.391Z,18.03
2019-02-18T04:30:48.669Z,16.32
2019-02-18T04:35:55.959Z,16.70
2019-02-18T04:41:03.398Z,15.00
2019-02-18T04:46:10.977Z,15.33
2019-02-18T04:56:25.475Z,14.45
2019-02-18T05:01:32.893Z,14.40
2019-02-18T05:06:40.388Z,13.62
2019-02-18T05:11:47.999Z,13.45
2019-02-18T05:16:55.404Z,13.37
2019-02-18T05:22:03.013Z,13.27
2019-02-18T05:27:10.418Z,12.53
2019-02-18T05:32:18.047Z,11.40
2019-02-18T05:37:25.254Z,12.37
2019-02-18T05:42:32.387Z,12.28
2019-02-18T05:47:39.935Z,11.57
2019-02-18T05:52:47.398Z,12.17
2019-02-18T05:57:54.748Z,10.90
2019-02-18T06:03:02.687Z,10.57
2019-02-18T06:08:10.059Z,11.50
2019-02-18T06:13:17.571Z,11.43
2019-02-18T06:18:24.971Z,10.90
2019-02-18T06:23:32.000Z,10.27
2019-02-18T06:28:39.063Z,10.33
2019-02-18T06:38:53.392Z,10.40
2019-02-18T06:44:00.799Z,10.68
2019-02-18T06:49:09.699Z,10.18
2019-02-18T06:54:16.796Z,9.70
2019-02-18T07:04:43.076Z,9.83
2019-02-18T07:09:54.882Z,9.50
2019-02-18T07:15:02.379Z,8.58
2019-02-18T07:20:09.949Z,9.53
2019-02-18T07:25:17.385Z,9.65
2019-02-18T07:30:24.914Z,9.63
2019-02-18T07:35:32.379Z,8.67
2019-02-18T07:40:39.900Z,9.20
2019-02-18T07:45:47.375Z,9.35
2019-02-18T07:50:55.667Z,9.25
2019-02-18T07:56:02.956Z,10.60
2019-02-18T08:01:10.585Z,10.37
2019-02-18T08:06:17.871Z,11.40
2019-02-18T08:11:25.378Z,11.38
2019-02-18T08:16:32.984Z,11.57
2019-02-18T08:21:40.386Z,12.47
2019-02-18T08:26:48.002Z,13.18
2019-02-18T08:31:55.404Z,15.03
2019-02-18T08:37:03.011Z,14.73
2019-02-18T08:42:10.412Z,15.03
2019-02-18T08:47:17.721Z,16.50
2019-02-18T08:52:25.019Z,17.13
2019-02-18T08:57:32.386Z,16.10
2019-02-18T09:02:39.937Z,17.57
2019-02-18T09:12:54.027Z,17.70
2019-02-18T09:18:01.433Z,17.07
2019-02-18T09:23:19.686Z,17.37
2019-02-18T09:28:26.986Z,17.52
2019-02-18T09:33:34.500Z,17.80
2019-02-18T09:38:41.900Z,17.67
2019-02-18T10:00:22.785Z,18.20
2019-02-18T10:05:35.692Z,18.23
2019-02-18T10:10:43.149Z,17.73
2019-02-18T10:15:50.508Z,19.60
2019-02-18T10:20:57.915Z,18.00
2019-02-18T10:26:05.375Z,18.67
2019-02-18T10:31:13.373Z,18.57
2019-02-18T10:36:20.667Z,18.92
2019-02-18T10:46:34.992Z,19.60
2019-02-18T10:51:42.374Z,20.27
2019-02-18T10:56:50.377Z,19.63
2019-02-18T11:01:57.859Z,19.13
2019-02-18T11:07:05.377Z,19.27
2019-02-18T11:12:12.975Z,17.35
2019-02-18T11:17:20.406Z,17.77
2019-02-18T11:22:27.992Z,16.50
2019-02-18T11:27:35.398Z,16.67
2019-02-18T11:32:43.010Z,17.45
2019-02-18T11:37:50.515Z,18.73
2019-02-18T11:42:57.847Z,17.52
2019-02-18T11:48:05.134Z,17.27
2019-02-18T11:53:12.525Z,16.53
2019-02-18T11:58:20.043Z,15.83
2019-02-18T12:03:27.539Z,15.77
2019-02-18T12:08:35.971Z,15.65
2019-02-18T12:13:43.394Z,14.60
2019-02-18T12:23:58.075Z,14.55
2019-02-18T12:29:05.475Z,15.48
2019-02-18T12:34:12.983Z,16.50
2019-02-18T12:39:22.661Z,15.83
2019-02-18T12:44:29.647Z,15.07
2019-02-18T12:49:36.385Z,14.50
2019-02-18T12:54:44.674Z,14.90
2019-02-18T12:59:52.194Z,14.77
2019-02-18T13:04:59.976Z,12.87
2019-02-18T13:10:07.591Z,11.77
2019-02-18T13:15:14.983Z,11.77
2019-02-18T13:20:22.398Z,12.53
2019-02-18T13:25:30.001Z,11.73
2019-02-18T13:30:37.383Z,12.23
2019-02-18T13:35:45.011Z,12.58
2019-02-18T13:40:52.410Z,12.20
2019-02-18T13:45:59.928Z,11.00
2019-02-18T13:51:07.656Z,11.73
2019-02-18T13:56:14.941Z,11.43
2019-02-18T14:01:22.376Z,10.47
2019-02-18T14:06:30.570Z,11.43
2019-02-18T14:11:37.982Z,12.30
2019-02-18T14:16:46.897Z,10.77
2019-02-18T14:21:54.382Z,20.48
2019-02-18T14:27:02.738Z,13.73
2019-02-18T14:32:10.776Z,14.53
2019-02-18T14:37:18.404Z,12.20
2019-02-18T14:42:25.804Z,8.93
2019-02-18T14:47:33.087Z,9.00
2019-02-18T14:52:42.482Z,10.73
2019-02-18T14:57:50.593Z,9.77
2019-02-18T15:02:58.744Z,95.23
2019-02-18T15:08:06.380Z,279.23
2019-02-18T15:13:14.944Z,13.43
2019-02-18T15:18:22.660Z,87.67
2019-02-18T15:23:30.379Z,9.25
2019-02-18T15:28:38.663Z,7.77
2019-02-18T15:33:46.374Z,7.00
2019-02-18T15:38:53.574Z,999.90
2019-02-18T15:44:00.986Z,604.27
2019-02-18T15:49:08.395Z,71.37
2019-02-18T15:54:16.058Z,380.37
2019-02-18T15:59:23.503Z,22.43
2019-02-18T16:04:42.383Z,11.35
2019-02-18T16:09:49.986Z,170.10
2019-02-18T16:14:57.691Z,37.37
2019-02-18T16:20:05.110Z,159.30
2019-02-18T16:25:12.519Z,150.10
2019-02-18T16:30:19.903Z,174.23
2019-02-18T16:35:27.378Z,134.93
2019-02-18T16:54:35.152Z,77.80
2019-02-18T16:59:44.118Z,66.35
2019-02-18T17:04:57.736Z,166.67
2019-02-18T17:10:12.705Z,296.20
2019-02-18T17:15:26.839Z,159.00
2019-02-18T17:20:35.737Z,57.60
2019-02-18T17:25:59.390Z,85.25
2019-02-18T17:31:09.866Z,57.37
2019-02-18T17:36:17.049Z,39.43
2019-02-18T17:41:28.049Z,38.67
2019-02-18T17:46:43.649Z,102.07
2019-02-18T17:51:57.638Z,24.90
2019-02-18T17:57:09.843Z,92.33
2019-02-18T18:02:28.000Z,45.97
2019-02-18T18:07:37.965Z,120.77
2019-02-18T18:18:02.307Z,114.93
2019-02-18T18:23:10.350Z,117.55
2019-02-18T18:28:24.508Z,87.03
2019-02-18T18:33:37.926Z,128.70
2019-02-18T21:40:32.031Z,168.00
2019-02-18T21:45:52.933Z,91.37
2019-02-18T21:51:02.040Z,67.87
2019-02-18T21:56:09.123Z,222.42
2019-02-18T22:01:15.794Z,368.77
2019-02-18T22:06:23.602Z,359.65
2019-02-18T22:11:30.435Z,311.00
2019-02-18T22:16:42.736Z,129.72
2019-02-18T22:21:58.463Z,106.33
2019-02-18T22:27:08.181Z,85.75
2019-02-18T22:32:16.779Z,143.80
2019-02-18T22:37:29.684Z,115.73
2019-02-18T22:42:44.453Z,258.23
2019-02-18T22:47:56.057Z,268.67
2019-02-18T22:53:09.709Z,124.90
2019-02-18T22:58:18.809Z,135.57
2019-02-18T23:03:32.085Z,89.25
2019-02-18T23:08:39.564Z,278.80
2019-02-18T23:13:56.323Z,377.40
2019-02-18T23:19:10.815Z,501.05
2019-02-18T23:24:25.378Z,447.30
2019-02-18T23:29:32.732Z,323.10
2019-02-18T23:34:39.314Z,317.33
2019-02-18T23:39:48.675Z,236.30
2019-02-18T23:44:59.303Z,226.20
2019-02-18T23:50:06.011Z,229.10
2019-02-18T23:55:12.637Z,265.40
